Time;durP1;ratioP1;P1;durP2;ratioP2;P2;SDS_P1;SDS_P2;PMS_P1;PMS_P2;Temp;Humidity;BMP_temperature;BMP_pressure;BME280_temperature;BME280_humidity;BME280_pressure;Samples;Min_cycle;Max_cycle;Signal;HPM_P1;HPM_P2
2023/12/07 00:01:11;;;;;;;22.87;15.25;;;2.30;99.90;;;;;;494029;241;27594;-74
2023/12/07 00:03:12;;;;;;;32.97;16.95;;;2.30;99.90;;;;;;494091;241;28077;-74
2023/12/07 00:05:14;;;;;;;32.60;16.48;;;2.30;99.90;;;;;;493986;241;27455;-72
2023/12/07 00:07:15;;;;;;;27.98;16.70;;;2.30;99.90;;;;;;493984;241;27510;-72
2023/12/07 00:09:16;;;;;;;25.83;15.88;;;2.30;99.90;;;;;;493948;241;27588;-72
2023/12/07 00:11:17;;;;;;;23.45;14.70;;;2.30;99.90;;;;;;493984;241;27474;-72
2023/12/07 00:13:19;;;;;;;21.08;13.60;;;2.30;99.90;;;;;;494091;241;27590;-73
2023/12/07 00:15:20;;;;;;;22.58;14.25;;;2.30;99.90;;;;;;493998;241;27467;-73
2023/12/07 00:17:21;;;;;;;22.92;14.38;;;2.30;99.90;;;;;;493981;241;28170;-73
2023/12/07 00:19:22;;;;;;;24.25;15.68;;;2.30;99.90;;;;;;494056;241;28695;-73
2023/12/07 00:21:24;;;;;;;29.12;15.90;;;2.30;99.90;;;;;;494123;241;27459;-73
2023/12/07 00:23:25;;;;;;;31.00;17.90;;;2.30;99.90;;;;;;494004;241;27611;-73
2023/12/07 00:25:26;;;;;;;23.58;14.68;;;2.30;99.90;;;;;;493982;241;27497;-72
2023/12/07 00:27:27;;;;;;;25.12;14.68;;;2.40;99.90;;;;;;493931;238;27626;-73
2023/12/07 00:29:29;;;;;;;36.10;15.98;;;2.30;99.90;;;;;;494086;241;27528;-75
2023/12/07 00:31:30;;;;;;;24.92;14.82;;;2.30;99.90;;;;;;494078;241;27481;-72
2023/12/07 00:33:31;;;;;;;26.15;15.60;;;2.30;99.90;;;;;;494064;241;28042;-73
2023/12/07 00:35:32;;;;;;;30.85;16.02;;;2.30;99.90;;;;;;494069;241;28080;-74
2023/12/07 00:37:34;;;;;;;26.10;15.48;;;2.20;99.90;;;;;;494044;241;27461;-73
2023/12/07 00:39:36;;;;;;;30.55;15.90;;;2.30;99.90;;;;;;493893;241;27608;-74
2023/12/07 00:41:36;;;;;;;24.48;14.48;;;2.20;99.90;;;;;;493952;241;27665;-73
2023/12/07 00:43:37;;;;;;;25.88;14.98;;;2.20;99.90;;;;;;493947;241;27508;-73
2023/12/07 00:45:39;;;;;;;26.48;14.65;;;2.20;99.90;;;;;;494084;241;27491;-73
2023/12/07 00:47:40;;;;;;;28.25;16.02;;;2.20;99.90;;;;;;494071;237;27894;-73
2023/12/07 00:49:41;;;;;;;27.30;15.75;;;2.20;99.90;;;;;;494038;241;27957;-73
2023/12/07 00:51:43;;;;;;;27.70;15.70;;;2.20;99.90;;;;;;494084;241;27455;-72
2023/12/07 00:53:44;;;;;;;28.05;15.85;;;2.20;99.90;;;;;;494027;238;27504;-72
2023/12/07 00:55:45;;;;;;;27.92;14.95;;;2.30;99.90;;;;;;494008;241;27619;-73
2023/12/07 00:57:46;;;;;;;31.27;16.60;;;2.30;99.90;;;;;;493968;241;27511;-72
2023/12/07 00:59:48;;;;;;;29.37;16.05;;;2.30;99.90;;;;;;493954;241;27580;-73
2023/12/07 01:01:49;;;;;;;24.52;15.10;;;2.30;99.90;;;;;;494062;241;27627;-73
2023/12/07 01:03:50;;;;;;;30.52;15.60;;;2.30;99.90;;;;;;494007;241;27932;-73
2023/12/07 01:05:51;;;;;;;31.35;16.80;;;2.30;99.90;;;;;;493996;241;29073;-73
2023/12/07 01:07:53;;;;;;;32.22;16.12;;;2.30;99.90;;;;;;493994;241;27536;-73
2023/12/07 01:09:54;;;;;;;24.90;14.98;;;2.30;99.90;;;;;;493992;241;27532;-73
2023/12/07 01:11:55;;;;;;;24.65;15.88;;;2.30;99.90;;;;;;494045;241;27497;-73
2023/12/07 01:13:56;;;;;;;25.92;15.23;;;2.30;99.90;;;;;;494002;241;27505;-72
2023/12/07 01:15:58;;;;;;;27.50;15.32;;;2.30;99.90;;;;;;493983;241;27506;-73
2023/12/07 01:17:59;;;;;;;24.10;14.27;;;2.30;99.90;;;;;;493991;241;27515;-73
2023/12/07 01:20:00;;;;;;;31.08;15.55;;;2.30;99.90;;;;;;493960;241;28091;-73
2023/12/07 01:22:01;;;;;;;23.92;14.02;;;2.30;99.90;;;;;;494105;241;28065;-75
2023/12/07 01:24:03;;;;;;;22.23;14.87;;;2.30;99.90;;;;;;494065;241;27463;-73
2023/12/07 01:26:04;;;;;;;24.55;13.73;;;2.30;99.90;;;;;;494059;241;27592;-73
2023/12/07 01:28:05;;;;;;;19.48;12.75;;;2.30;99.90;;;;;;493958;241;27513;-73
2023/12/07 01:30:06;;;;;;;20.45;14.25;;;2.30;99.90;;;;;;494047;241;27635;-73
2023/12/07 01:32:08;;;;;;;17.33;11.25;;;2.20;99.90;;;;;;494023;241;27513;-74
2023/12/07 01:34:09;;;;;;;26.80;14.48;;;2.30;99.90;;;;;;493934;237;28006;-73
2023/12/07 01:36:10;;;;;;;20.77;12.82;;;2.30;99.90;;;;;;493898;241;28093;-75
2023/12/07 01:38:12;;;;;;;18.87;12.77;;;2.30;99.90;;;;;;494007;241;28699;-72
2023/12/07 01:40:14;;;;;;;26.67;13.75;;;2.30;99.90;;;;;;493995;241;27467;-73
2023/12/07 01:42:14;;;;;;;22.10;13.93;;;2.30;99.90;;;;;;493839;241;27546;-74
2023/12/07 01:44:15;;;;;;;28.83;15.75;;;2.30;99.90;;;;;;493948;241;27457;-73
2023/12/07 01:46:16;;;;;;;24.00;15.07;;;2.30;99.90;;;;;;493961;241;27527;-72
2023/12/07 01:48:18;;;;;;;22.73;13.15;;;2.30;99.90;;;;;;493994;241;27591;-74
2023/12/07 01:50:23;;;;;;;23.15;13.60;;;2.30;99.90;;;;;;494005;241;27911;-72
2023/12/07 01:52:22;;;;;;;21.95;13.95;;;2.30;99.90;;;;;;493715;241;27950;-74
2023/12/07 01:54:21;;;;;;;23.30;13.32;;;2.30;99.90;;;;;;493972;241;27513;-72
2023/12/07 01:56:23;;;;;;;21.65;11.60;;;2.30;99.90;;;;;;494074;241;27517;-73
2023/12/07 01:58:24;;;;;;;22.30;11.10;;;2.20;99.90;;;;;;494041;241;27580;-73
2023/12/07 02:00:25;;;;;;;20.30;12.02;;;2.00;99.90;;;;;;494016;241;27466;-72
2023/12/07 02:02:26;;;;;;;19.12;12.73;;;2.10;99.90;;;;;;494079;241;27501;-72
2023/12/07 02:04:28;;;;;;;20.02;12.50;;;2.20;99.90;;;;;;494061;241;27459;-72
2023/12/07 02:06:29;;;;;;;25.60;13.62;;;2.30;99.90;;;;;;494005;241;27929;-73
2023/12/07 02:08:30;;;;;;;21.05;12.00;;;2.30;99.90;;;;;;494001;241;28079;-73
2023/12/07 02:10:32;;;;;;;23.30;11.60;;;2.30;99.90;;;;;;494060;241;27454;-73
2023/12/07 02:12:33;;;;;;;15.75;11.10;;;2.30;99.90;;;;;;494046;241;27501;-74
2023/12/07 02:14:34;;;;;;;23.00;12.40;;;2.20;99.90;;;;;;494010;241;27831;-72
2023/12/07 02:16:35;;;;;;;20.35;12.77;;;2.20;99.90;;;;;;493959;241;27468;-73
2023/12/07 02:18:37;;;;;;;20.02;11.40;;;2.30;99.90;;;;;;493957;241;28010;-73
2023/12/07 02:20:38;;;;;;;18.90;11.38;;;2.30;99.90;;;;;;493955;241;29004;-72
2023/12/07 02:22:39;;;;;;;17.67;10.35;;;2.30;99.90;;;;;;493952;241;27498;-73
2023/12/07 02:24:40;;;;;;;17.40;10.90;;;2.20;99.90;;;;;;494000;241;27534;-74
2023/12/07 02:26:42;;;;;;;16.98;11.35;;;2.20;99.90;;;;;;493969;241;27503;-72
2023/12/07 02:28:43;;;;;;;18.95;12.27;;;2.20;99.90;;;;;;493963;241;27596;-73
2023/12/07 02:30:44;;;;;;;17.62;10.65;;;2.20;99.90;;;;;;493739;241;27567;-72
2023/12/07 02:32:45;;;;;;;20.62;11.52;;;2.10;99.90;;;;;;494010;241;27918;-72
2023/12/07 02:34:47;;;;;;;22.62;12.18;;;2.10;99.90;;;;;;493988;241;28033;-73
2023/12/07 02:36:48;;;;;;;18.87;11.90;;;2.10;99.90;;;;;;494061;241;27914;-73
2023/12/07 02:38:49;;;;;;;18.83;12.48;;;2.10;99.90;;;;;;494086;241;27497;-73
2023/12/07 02:40:50;;;;;;;19.25;11.75;;;2.10;99.90;;;;;;494058;241;27504;-74
2023/12/07 02:42:52;;;;;;;20.88;12.20;;;2.10;99.90;;;;;;494057;241;27451;-72
2023/12/07 02:44:53;;;;;;;20.62;11.10;;;2.10;99.90;;;;;;494036;237;27501;-73
2023/12/07 02:46:54;;;;;;;21.52;12.75;;;2.10;99.90;;;;;;494057;241;27477;-72
2023/12/07 02:48:55;;;;;;;23.55;12.20;;;2.10;99.90;;;;;;494064;241;27941;-73
2023/12/07 02:50:57;;;;;;;20.40;11.70;;;2.10;99.90;;;;;;494087;241;27998;-74
2023/12/07 02:52:58;;;;;;;20.48;12.25;;;2.10;99.90;;;;;;494080;241;27458;-73
2023/12/07 02:54:59;;;;;;;17.50;12.07;;;2.10;99.90;;;;;;494083;241;27525;-73
2023/12/07 02:57:00;;;;;;;20.17;11.82;;;2.10;99.90;;;;;;494067;241;27446;-74
2023/12/07 02:59:02;;;;;;;20.67;13.10;;;2.10;99.90;;;;;;494115;237;27462;-72
2023/12/07 03:01:03;;;;;;;20.65;11.70;;;2.00;99.90;;;;;;494082;241;27512;-73
2023/12/07 03:03:04;;;;;;;25.15;13.88;;;2.10;99.90;;;;;;494069;241;27459;-72
2023/12/07 03:05:06;;;;;;;21.17;12.80;;;2.10;99.90;;;;;;493980;241;28023;-73
2023/12/07 03:07:07;;;;;;;23.15;13.35;;;2.00;99.90;;;;;;494003;241;28198;-74
2023/12/07 03:09:08;;;;;;;23.02;12.73;;;2.10;99.90;;;;;;493983;241;27557;-72
2023/12/07 03:11:09;;;;;;;24.40;12.25;;;2.10;99.90;;;;;;493976;241;27502;-73
2023/12/07 03:13:11;;;;;;;23.10;13.52;;;2.00;99.90;;;;;;493810;241;27461;-73
2023/12/07 03:15:13;;;;;;;23.98;14.00;;;2.00;99.90;;;;;;493370;241;27870;-73
2023/12/07 03:17:13;;;;;;;23.98;14.00;;;2.00;99.90;;;;;;493557;241;27499;-73
2023/12/07 03:19:14;;;;;;;21.35;12.77;;;2.00;99.90;;;;;;493988;241;27459;-73
2023/12/07 03:21:16;;;;;;;23.42;12.95;;;2.00;99.90;;;;;;493994;241;27969;-74
2023/12/07 03:23:17;;;;;;;20.48;13.13;;;2.00;99.90;;;;;;494002;241;28702;-73
2023/12/07 03:25:18;;;;;;;20.55;13.10;;;2.00;99.90;;;;;;493997;241;27461;-73
2023/12/07 03:27:19;;;;;;;21.17;13.60;;;2.00;99.90;;;;;;493980;241;27509;-73
2023/12/07 03:29:21;;;;;;;20.52;13.30;;;2.00;99.90;;;;;;494087;237;27466;-72
2023/12/07 03:31:22;;;;;;;30.23;14.25;;;1.90;99.90;;;;;;494055;241;27578;-72
2023/12/07 03:33:23;;;;;;;25.70;13.13;;;1.80;99.90;;;;;;493994;241;27537;-75
2023/12/07 03:35:24;;;;;;;21.20;13.10;;;1.80;99.90;;;;;;494016;241;27930;-72
2023/12/07 03:37:26;;;;;;;21.87;12.18;;;1.80;99.90;;;;;;493980;241;28029;-72
2023/12/07 03:39:29;;;;;;;27.92;13.80;;;1.80;99.90;;;;;;494044;241;27501;-72
2023/12/07 03:41:28;;;;;;;16.70;11.68;;;1.70;99.90;;;;;;493930;241;27480;-73
2023/12/07 03:43:29;;;;;;;27.60;14.25;;;1.70;99.90;;;;;;494088;241;27494;-73
2023/12/07 03:45:31;;;;;;;20.55;12.55;;;1.80;99.90;;;;;;494079;241;27456;-73
2023/12/07 03:47:32;;;;;;;18.30;11.07;;;1.80;99.90;;;;;;493980;241;27521;-72
2023/12/07 03:49:33;;;;;;;19.05;12.98;;;1.80;99.90;;;;;;493994;241;27561;-72
2023/12/07 03:51:36;;;;;;;23.35;12.80;;;1.80;99.90;;;;;;494099;241;28001;-73
2023/12/07 03:53:36;;;;;;;19.55;13.30;;;1.80;99.90;;;;;;493886;241;28088;-74
2023/12/07 03:55:37;;;;;;;19.50;12.85;;;1.80;99.90;;;;;;493980;240;27520;-72
2023/12/07 03:57:38;;;;;;;24.33;14.05;;;1.70;99.90;;;;;;493979;241;27502;-72
2023/12/07 03:59:39;;;;;;;19.58;12.88;;;1.70;99.90;;;;;;494086;237;27589;-74
2023/12/07 04:01:41;;;;;;;21.08;13.40;;;1.70;99.90;;;;;;493966;241;27562;-72
2023/12/07 04:03:42;;;;;;;25.90;14.75;;;1.80;99.90;;;;;;494062;241;27510;-73
2023/12/07 04:05:43;;;;;;;30.27;14.68;;;1.70;99.90;;;;;;494080;241;27566;-72
2023/12/07 04:07:44;;;;;;;26.33;15.50;;;1.70;99.90;;;;;;494036;241;28050;-73
2023/12/07 04:09:46;;;;;;;28.75;13.38;;;1.70;99.90;;;;;;494109;241;28002;-73
2023/12/07 04:11:47;;;;;;;21.73;12.77;;;1.70;99.90;;;;;;494063;241;27510;-73
2023/12/07 04:13:48;;;;;;;22.50;13.60;;;1.70;99.90;;;;;;493926;241;27497;-72
2023/12/07 04:15:49;;;;;;;23.08;12.50;;;1.70;99.90;;;;;;493987;241;27483;-72
2023/12/07 04:17:51;;;;;;;22.13;12.30;;;1.70;99.90;;;;;;494122;241;27469;-73
2023/12/07 04:19:52;;;;;;;20.80;13.52;;;1.60;99.90;;;;;;493996;241;27508;-73
2023/12/07 04:21:53;;;;;;;27.77;14.38;;;1.50;99.90;;;;;;493971;241;27927;-73
2023/12/07 04:23:55;;;;;;;24.77;13.75;;;1.50;99.90;;;;;;493978;241;28050;-72
2023/12/07 04:25:56;;;;;;;23.10;12.90;;;1.50;99.90;;;;;;494077;241;28061;-73
2023/12/07 04:27:57;;;;;;;19.73;12.57;;;1.50;99.90;;;;;;494085;241;27581;-72
2023/12/07 04:29:58;;;;;;;27.23;14.05;;;1.50;99.90;;;;;;494081;241;27590;-73
2023/12/07 04:32:00;;;;;;;23.33;13.30;;;1.50;99.90;;;;;;494043;239;27469;-72
2023/12/07 04:34:01;;;;;;;24.02;13.13;;;1.50;99.90;;;;;;493998;241;27505;-73
2023/12/07 04:36:04;;;;;;;23.30;14.13;;;1.60;99.90;;;;;;493997;241;27496;-73
2023/12/07 04:38:03;;;;;;;24.95;14.50;;;1.50;99.90;;;;;;493855;241;28057;-72
2023/12/07 04:40:05;;;;;;;27.62;12.18;;;1.60;99.90;;;;;;494005;241;27986;-73
2023/12/07 04:42:06;;;;;;;41.17;16.85;;;1.60;99.90;;;;;;493972;241;27510;-72
2023/12/07 04:44:07;;;;;;;30.35;14.23;;;1.60;99.90;;;;;;494015;241;27491;-72
2023/12/07 04:46:08;;;;;;;48.50;15.35;;;1.50;99.90;;;;;;493991;241;27598;-72
2023/12/07 04:48:10;;;;;;;34.13;14.50;;;1.50;99.90;;;;;;493984;241;27553;-73
2023/12/07 04:50:11;;;;;;;94.25;20.20;;;1.50;99.90;;;;;;493950;241;27532;-73
2023/12/07 04:52:12;;;;;;;39.28;15.13;;;1.30;99.90;;;;;;493953;241;27611;-74
2023/12/07 04:54:16;;;;;;;21.98;13.90;;;1.40;99.90;;;;;;493955;241;28012;-73
2023/12/07 04:56:15;;;;;;;23.50;13.55;;;1.40;99.90;;;;;;493780;241;28059;-73
2023/12/07 04:58:16;;;;;;;26.00;13.73;;;1.40;99.90;;;;;;493993;241;27516;-72
2023/12/07 05:00:17;;;;;;;31.58;15.40;;;1.50;99.90;;;;;;493981;241;27584;-72
2023/12/07 05:02:18;;;;;;;23.65;13.23;;;1.50;99.90;;;;;;494053;241;27525;-75
2023/12/07 05:04:20;;;;;;;46.13;14.48;;;1.40;99.90;;;;;;494072;241;27544;-73
2023/12/07 05:06:21;;;;;;;29.08;14.57;;;1.50;99.90;;;;;;494078;241;27497;-73
2023/12/07 05:08:22;;;;;;;68.07;15.25;;;1.40;99.90;;;;;;493907;241;28215;-73
2023/12/07 05:10:23;;;;;;;26.70;12.70;;;1.40;99.90;;;;;;494053;241;27910;-72
2023/12/07 05:12:25;;;;;;;28.52;13.57;;;1.30;99.90;;;;;;494096;241;28098;-73
2023/12/07 05:14:26;;;;;;;24.63;12.25;;;1.30;99.90;;;;;;494064;241;27524;-73
2023/12/07 05:16:27;;;;;;;19.20;11.65;;;1.30;99.90;;;;;;494087;241;27572;-73
2023/12/07 05:18:28;;;;;;;46.22;12.82;;;1.30;99.90;;;;;;494111;241;27926;-72
2023/12/07 05:20:30;;;;;;;25.50;12.50;;;1.30;99.90;;;;;;494091;241;27565;-73
2023/12/07 05:22:31;;;;;;;62.85;13.25;;;1.30;99.90;;;;;;493975;241;27489;-73
2023/12/07 05:24:34;;;;;;;36.83;11.57;;;1.30;99.90;;;;;;494069;241;27942;-73
2023/12/07 05:26:34;;;;;;;36.28;11.60;;;1.30;99.90;;;;;;493936;241;27981;-73
2023/12/07 05:28:35;;;;;;;28.58;13.32;;;1.30;99.90;;;;;;494109;241;27610;-74
2023/12/07 05:30:36;;;;;;;24.58;11.35;;;1.30;99.90;;;;;;493985;241;27482;-72
2023/12/07 05:32:37;;;;;;;21.75;11.23;;;1.20;99.90;;;;;;493984;241;27494;-72
2023/12/07 05:34:39;;;;;;;22.35;11.45;;;1.30;99.90;;;;;;494016;241;27446;-73
2023/12/07 05:36:40;;;;;;;20.90;11.15;;;1.20;99.90;;;;;;493997;241;27458;-72
2023/12/07 05:38:41;;;;;;;33.30;10.60;;;1.20;99.90;;;;;;493998;241;27500;-73
2023/12/07 05:40:42;;;;;;;14.93;9.30;;;1.20;99.90;;;;;;494023;241;27907;-72
2023/12/07 05:42:44;;;;;;;27.23;11.12;;;1.10;99.90;;;;;;493945;241;28137;-72
2023/12/07 05:44:45;;;;;;;22.90;9.70;;;1.20;99.90;;;;;;494002;238;27584;-75
2023/12/07 05:46:46;;;;;;;17.02;9.50;;;1.10;99.90;;;;;;494009;241;27475;-73
2023/12/07 05:48:47;;;;;;;19.75;8.88;;;1.10;99.90;;;;;;493965;241;27547;-73
2023/12/07 05:50:49;;;;;;;14.70;8.68;;;1.10;99.90;;;;;;494071;241;27472;-72
2023/12/07 05:52:50;;;;;;;19.95;9.88;;;1.00;99.90;;;;;;494078;241;27604;-72
2023/12/07 05:54:51;;;;;;;36.10;11.18;;;1.00;99.90;;;;;;493985;241;27547;-74
2023/12/07 05:56:52;;;;;;;22.08;9.57;;;1.00;99.90;;;;;;493998;241;27590;-71
2023/12/07 05:58:54;;;;;;;25.95;9.38;;;1.00;99.90;;;;;;493984;241;27950;-72
2023/12/07 06:00:55;;;;;;;58.60;11.95;;;1.00;99.90;;;;;;493969;241;27918;-72
2023/12/07 06:02:56;;;;;;;16.35;11.18;;;0.90;99.90;;;;;;493999;241;28018;-72
2023/12/07 06:04:57;;;;;;;17.23;9.88;;;0.90;99.90;;;;;;493997;241;27524;-73
2023/12/07 06:06:59;;;;;;;28.55;9.20;;;0.90;99.90;;;;;;493983;241;27462;-72
2023/12/07 06:09:00;;;;;;;22.23;9.30;;;0.90;99.90;;;;;;494064;241;27509;-72
2023/12/07 06:11:01;;;;;;;16.87;9.52;;;0.90;99.90;;;;;;494032;241;27557;-72
2023/12/07 06:13:03;;;;;;;20.35;8.70;;;0.90;99.90;;;;;;494115;241;27592;-72
2023/12/07 06:15:06;;;;;;;42.10;11.20;;;0.90;99.90;;;;;;493946;241;27577;-73
2023/12/07 06:17:05;;;;;;;36.10;9.35;;;0.80;99.90;;;;;;493743;241;27904;-72
2023/12/07 06:19:06;;;;;;;39.50;9.80;;;0.80;99.90;;;;;;493985;241;28001;-73
2023/12/07 06:21:07;;;;;;;24.42;10.20;;;0.90;99.90;;;;;;493998;241;28080;-73
2023/12/07 06:23:12;;;;;;;35.28;10.95;;;0.90;99.90;;;;;;494066;241;27575;-73
2023/12/07 06:25:11;;;;;;;28.60;11.50;;;0.90;99.90;;;;;;493773;241;27594;-73
2023/12/07 06:27:11;;;;;;;33.15;12.07;;;0.90;99.90;;;;;;493928;241;27470;-72
2023/12/07 06:29:12;;;;;;;73.20;11.10;;;0.90;99.90;;;;;;494018;241;27493;-73
2023/12/07 06:31:21;;;;;;;13.02;8.85;;;0.90;99.90;;;;;;494093;241;27576;-73
2023/12/07 06:33:15;;;;;;;13.60;9.27;;;1.00;99.90;;;;;;493522;241;27477;-72
2023/12/07 06:35:17;;;;;;;15.15;9.27;;;0.90;99.90;;;;;;494006;241;27974;-73
2023/12/07 06:37:20;;;;;;;21.02;8.80;;;0.90;99.90;;;;;;494001;241;28726;-72
2023/12/07 06:39:19;;;;;;;16.90;7.90;;;0.90;99.90;;;;;;493871;241;27584;-72
2023/12/07 06:41:20;;;;;;;31.23;9.43;;;0.90;99.90;;;;;;494023;241;27587;-74
2023/12/07 06:43:22;;;;;;;47.80;10.05;;;0.80;99.90;;;;;;494007;241;27466;-72
2023/12/07 06:45:22;;;;;;;53.67;10.60;;;0.80;99.90;;;;;;494049;241;27512;-72
2023/12/07 06:47:24;;;;;;;49.28;9.18;;;0.80;99.90;;;;;;494028;241;27884;-72
2023/12/07 06:49:25;;;;;;;25.25;8.05;;;0.70;99.90;;;;;;494032;241;27623;-73
2023/12/07 06:51:26;;;;;;;33.88;8.65;;;0.70;99.90;;;;;;494028;241;27501;-73
2023/12/07 06:53:27;;;;;;;12.73;7.28;;;0.70;99.90;;;;;;493994;241;27981;-72
2023/12/07 06:55:29;;;;;;;35.35;9.38;;;0.70;99.90;;;;;;493980;241;28060;-72
2023/12/07 06:57:30;;;;;;;62.95;9.07;;;0.70;99.90;;;;;;494062;241;28053;-75
2023/12/07 06:59:31;;;;;;;48.38;9.07;;;0.70;99.90;;;;;;494121;241;27561;-73
2023/12/07 07:01:32;;;;;;;23.80;7.62;;;0.70;99.90;;;;;;494082;241;27508;-72
2023/12/07 07:03:35;;;;;;;20.55;6.87;;;0.70;99.90;;;;;;493944;241;27466;-72
2023/12/07 07:05:35;;;;;;;22.13;7.62;;;0.70;99.90;;;;;;493946;241;27480;-77
2023/12/07 07:07:36;;;;;;;14.60;7.65;;;0.70;99.90;;;;;;494020;241;27501;-72
2023/12/07 07:09:37;;;;;;;66.75;9.70;;;0.60;99.90;;;;;;493992;241;27604;-72
2023/12/07 07:11:39;;;;;;;25.58;8.23;;;0.60;99.90;;;;;;493986;241;27588;-73
2023/12/07 07:13:40;;;;;;;37.72;8.82;;;0.50;99.90;;;;;;494015;241;28857;-72
2023/12/07 07:15:42;;;;;;;12.20;7.90;;;0.60;99.90;;;;;;494015;241;27906;-72
2023/12/07 07:17:42;;;;;;;21.87;8.30;;;0.60;99.90;;;;;;493865;241;27965;-72
2023/12/07 07:19:44;;;;;;;14.57;9.60;;;0.60;99.90;;;;;;493992;239;27473;-72
2023/12/07 07:21:45;;;;;;;16.25;9.07;;;0.60;99.90;;;;;;494061;241;27502;-72
2023/12/07 07:23:46;;;;;;;27.20;7.75;;;0.70;99.90;;;;;;494015;241;27519;-74
2023/12/07 07:25:47;;;;;;;13.60;6.45;;;0.70;99.90;;;;;;493994;241;27546;-72
2023/12/07 07:27:49;;;;;;;7.75;6.37;;;0.60;99.90;;;;;;493973;241;27528;-73
2023/12/07 07:29:50;;;;;;;13.57;7.32;;;0.70;99.90;;;;;;493983;241;27475;-72
2023/12/07 07:31:51;;;;;;;30.30;7.62;;;0.70;99.90;;;;;;494011;241;27505;-73
2023/12/07 07:33:52;;;;;;;18.33;7.40;;;0.70;99.90;;;;;;493986;241;27498;-72
2023/12/07 07:35:55;;;;;;;34.33;8.25;;;0.60;99.90;;;;;;494010;241;27971;-72
2023/12/07 07:37:55;;;;;;;25.58;8.23;;;0.50;99.90;;;;;;493951;241;28057;-72
2023/12/07 07:39:56;;;;;;;25.75;8.57;;;0.60;99.90;;;;;;493992;241;27563;-72
2023/12/07 07:41:58;;;;;;;12.52;7.47;;;0.50;99.90;;;;;;494064;241;27526;-72
2023/12/07 07:43:59;;;;;;;16.35;7.45;;;0.60;99.90;;;;;;494076;241;27489;-73
2023/12/07 07:46:00;;;;;;;12.25;7.03;;;0.60;99.90;;;;;;494088;241;27552;-72
2023/12/07 07:48:01;;;;;;;31.73;9.40;;;0.70;99.90;;;;;;494044;241;27602;-72
2023/12/07 07:50:05;;;;;;;24.63;9.18;;;0.60;99.90;;;;;;494092;241;27644;-73
2023/12/07 07:52:05;;;;;;;15.80;8.18;;;0.60;99.90;;;;;;493859;241;27466;-72
2023/12/07 07:54:05;;;;;;;18.30;7.32;;;0.70;99.90;;;;;;494054;241;27550;-72
2023/12/07 07:56:06;;;;;;;23.45;8.60;;;0.80;99.90;;;;;;494061;241;27908;-72
2023/12/07 07:58:08;;;;;;;41.45;10.57;;;0.80;99.90;;;;;;493976;241;27971;-72
2023/12/07 08:00:09;;;;;;;16.25;8.15;;;0.80;99.90;;;;;;494123;241;27509;-73
2023/12/07 08:02:10;;;;;;;15.98;7.82;;;0.90;99.90;;;;;;494066;241;27556;-72
2023/12/07 08:04:12;;;;;;;32.28;9.00;;;0.80;99.90;;;;;;494013;241;27494;-72
2023/12/07 08:06:13;;;;;;;32.75;8.88;;;0.90;99.90;;;;;;494086;241;27488;-72
2023/12/07 08:08:14;;;;;;;12.73;7.15;;;0.90;99.90;;;;;;494024;241;27596;-72
2023/12/07 08:10:15;;;;;;;32.25;8.75;;;0.90;99.90;;;;;;494092;241;27523;-72
2023/12/07 08:12:16;;;;;;;22.27;8.10;;;0.90;99.90;;;;;;494028;241;27461;-72
2023/12/07 08:14:18;;;;;;;18.92;8.23;;;0.90;99.90;;;;;;494038;241;27960;-72
2023/12/07 08:16:19;;;;;;;14.10;8.60;;;1.10;99.90;;;;;;494024;241;28720;-73
2023/12/07 08:18:22;;;;;;;48.78;12.35;;;1.00;99.90;;;;;;494020;241;27916;-72
2023/12/07 08:20:21;;;;;;;25.30;10.70;;;1.00;99.90;;;;;;493896;241;27596;-73
2023/12/07 08:22:23;;;;;;;15.35;9.25;;;0.90;99.90;;;;;;494008;241;27464;-72
2023/12/07 08:24:25;;;;;;;13.10;8.40;;;1.00;99.90;;;;;;493991;241;27538;-77
2023/12/07 08:26:27;;;;;;;7.82;6.35;;;1.00;99.90;;;;;;493952;241;27873;-72
2023/12/07 08:28:26;;;;;;;8.40;6.20;;;1.10;99.90;;;;;;493850;240;27571;-72
2023/12/07 08:30:28;;;;;;;10.60;6.55;;;1.10;99.90;;;;;;494015;241;27528;-73
2023/12/07 08:32:29;;;;;;;7.90;6.00;;;1.20;99.90;;;;;;494052;241;27476;-72
2023/12/07 08:34:30;;;;;;;8.40;6.07;;;1.10;99.90;;;;;;494055;241;27593;-73
2023/12/07 08:36:31;;;;;;;10.65;6.55;;;1.10;99.90;;;;;;494128;241;27932;-73
2023/12/07 08:38:33;;;;;;;8.57;6.30;;;1.10;99.90;;;;;;494097;241;27921;-73
2023/12/07 08:40:34;;;;;;;10.15;5.57;;;1.10;99.90;;;;;;493987;241;27977;-73
2023/12/07 08:42:35;;;;;;;10.07;5.72;;;1.10;99.90;;;;;;494062;241;27461;-72
2023/12/07 08:44:36;;;;;;;7.97;6.18;;;1.10;99.90;;;;;;493979;241;27477;-73
2023/12/07 08:46:38;;;;;;;7.22;5.97;;;1.10;99.90;;;;;;493998;241;27591;-73
2023/12/07 08:48:39;;;;;;;7.68;5.32;;;1.10;99.90;;;;;;494069;241;27473;-72
2023/12/07 08:50:40;;;;;;;6.60;5.22;;;1.10;99.90;;;;;;494001;241;27546;-73
2023/12/07 08:52:41;;;;;;;9.85;7.00;;;1.10;99.90;;;;;;493958;241;27469;-72
2023/12/07 08:54:43;;;;;;;10.15;6.00;;;1.10;99.90;;;;;;493996;241;27446;-73
2023/12/07 08:56:44;;;;;;;9.52;7.15;;;1.10;99.90;;;;;;494114;241;27485;-73
2023/12/07 08:58:45;;;;;;;9.18;5.68;;;1.10;99.90;;;;;;494103;241;27584;-72
2023/12/07 09:00:46;;;;;;;7.62;5.55;;;1.10;99.90;;;;;;494034;241;28154;-73
2023/12/07 09:02:48;;;;;;;6.75;4.95;;;1.10;99.90;;;;;;494077;241;28092;-74
2023/12/07 09:04:51;;;;;;;8.10;5.62;;;1.10;99.90;;;;;;493997;241;29016;-73
2023/12/07 09:06:50;;;;;;;11.30;6.80;;;1.10;99.90;;;;;;493868;241;28012;-73
2023/12/07 09:08:51;;;;;;;9.88;6.18;;;1.20;99.90;;;;;;493994;241;27466;-72
2023/12/07 09:10:53;;;;;;;7.22;5.97;;;1.20;99.90;;;;;;494062;241;27510;-73
2023/12/07 09:12:54;;;;;;;6.72;5.40;;;1.30;99.90;;;;;;494013;241;27490;-74
2023/12/07 09:14:55;;;;;;;10.73;5.45;;;1.40;99.90;;;;;;494063;237;27527;-72
2023/12/07 09:16:56;;;;;;;8.13;5.75;;;1.40;99.90;;;;;;494013;241;27498;-73
2023/12/07 09:18:58;;;;;;;8.07;6.68;;;1.50;99.90;;;;;;493945;241;27496;-72
2023/12/07 09:21:00;;;;;;;7.65;5.90;;;1.50;99.90;;;;;;494046;241;27475;-73
2023/12/07 09:23:00;;;;;;;8.13;6.18;;;1.50;99.90;;;;;;493866;241;27491;-74
2023/12/07 09:25:02;;;;;;;9.23;7.05;;;1.50;99.90;;;;;;493918;241;27452;-73
2023/12/07 09:27:03;;;;;;;9.95;6.80;;;1.50;99.90;;;;;;493968;241;27967;-73
2023/12/07 09:29:04;;;;;;;9.75;7.65;;;1.40;99.90;;;;;;493884;237;28716;-72
2023/12/07 09:31:06;;;;;;;10.00;6.60;;;1.50;99.90;;;;;;493929;241;27928;-72
2023/12/07 09:33:06;;;;;;;8.73;5.78;;;1.50;99.90;;;;;;494033;241;28065;-73
2023/12/07 09:35:08;;;;;;;7.03;5.60;;;1.50;99.90;;;;;;494030;241;27500;-72
2023/12/07 09:37:09;;;;;;;6.78;5.65;;;1.50;99.90;;;;;;493988;241;27651;-72
2023/12/07 09:39:10;;;;;;;6.65;5.22;;;1.50;99.90;;;;;;494053;241;27599;-74
2023/12/07 09:41:11;;;;;;;6.97;5.50;;;1.50;99.90;;;;;;493987;241;27471;-72
2023/12/07 09:43:13;;;;;;;11.27;6.03;;;1.50;99.90;;;;;;494053;241;27471;-73
2023/12/07 09:45:16;;;;;;;10.05;6.90;;;1.60;99.90;;;;;;494067;241;27487;-73
2023/12/07 09:47:15;;;;;;;9.55;8.23;;;1.60;99.90;;;;;;493819;241;27584;-72
2023/12/07 09:49:17;;;;;;;13.60;10.15;;;1.70;99.90;;;;;;494019;241;27594;-74
2023/12/07 09:51:18;;;;;;;16.23;10.45;;;1.60;99.90;;;;;;493982;241;28079;-72
2023/12/07 09:53:19;;;;;;;11.40;8.90;;;1.60;99.90;;;;;;493985;241;28081;-73
2023/12/07 09:55:22;;;;;;;10.05;8.18;;;1.60;99.90;;;;;;493978;241;28771;-72
2023/12/07 09:57:21;;;;;;;11.55;9.00;;;1.60;99.90;;;;;;493891;241;27473;-73
2023/12/07 09:59:23;;;;;;;13.77;9.63;;;1.50;99.90;;;;;;493917;241;27537;-73
2023/12/07 10:01:24;;;;;;;11.00;9.02;;;1.50;99.90;;;;;;493963;241;27456;-72
2023/12/07 10:03:25;;;;;;;9.43;8.05;;;1.50;99.90;;;;;;493962;241;27493;-73
2023/12/07 10:05:26;;;;;;;12.65;8.25;;;1.50;99.90;;;;;;494055;241;27494;-72
2023/12/07 10:07:28;;;;;;;9.75;7.80;;;1.50;99.90;;;;;;494002;241;27523;-72
2023/12/07 10:09:29;;;;;;;10.55;7.35;;;1.50;99.90;;;;;;493999;241;27576;-73
2023/12/07 10:11:30;;;;;;;11.35;7.62;;;1.50;99.90;;;;;;493976;241;27599;-72
2023/12/07 10:13:31;;;;;;;9.35;7.78;;;1.50;99.90;;;;;;494047;237;27961;-72
2023/12/07 10:15:33;;;;;;;11.93;8.55;;;1.50;99.90;;;;;;494023;241;27989;-74
2023/12/07 10:17:34;;;;;;;8.80;7.30;;;1.50;99.90;;;;;;494033;237;27473;-72
2023/12/07 10:19:35;;;;;;;9.30;6.97;;;1.50;99.90;;;;;;494092;237;27583;-73
2023/12/07 10:21:36;;;;;;;8.88;6.55;;;1.50;99.90;;;;;;494032;241;27454;-73
2023/12/07 10:23:38;;;;;;;8.80;6.97;;;1.50;99.90;;;;;;494076;241;27609;-72
2023/12/07 10:25:39;;;;;;;9.63;6.95;;;1.50;99.90;;;;;;494068;241;27617;-73
2023/12/07 10:27:40;;;;;;;8.50;6.65;;;1.60;99.90;;;;;;494073;241;27475;-73